Cowan Heights, California
Current Conditions -  °F | °C
As of 11:53 AM on Sunday 23 Nov 2014 (Local Time) from KSNA Reporting Station
Broken Clouds Broken Clouds  
Wind Chill: 81°   Ceiling: 28000
Heat Index: 81°   Visibility: 10mi
Dew Point:   Wind: 23mph
Humidity: 5%   Direction: 20°NNE
Pressure: 30.08"   Gusts: 35mph
Location:  33.7594°N, 117.781°W
Report Text: KSNA 231953Z 02020G30KT 10SM R20R/2800VP6000FT FEW250 BKN280 27/M17 A3008 RMK AO2 PK WND 02030/1950 SLP184 T02721172
Loading
Personal Weather Stations






























Interactive Weather Map New forecast layout! Learn more

10-Day Weather Forecast

Advertisements
Track Severe Weather on mobile